createdAt,value
2023-01-08T00:02:21.657Z,10.59
2023-01-08T00:04:48.367Z,10.60
2023-01-08T00:07:15.018Z,10.61
2023-01-08T00:09:41.724Z,10.81
2023-01-08T00:12:08.470Z,10.57
2023-01-08T00:14:35.065Z,10.50
2023-01-08T00:17:02.783Z,10.48
2023-01-08T00:19:31.106Z,10.33
2023-01-08T00:21:57.673Z,10.30
2023-01-08T00:24:24.327Z,10.36
2023-01-08T00:26:50.923Z,10.38
2023-01-08T00:29:17.854Z,10.35
2023-01-08T00:31:45.319Z,10.43
2023-01-08T00:34:12.075Z,10.37
2023-01-08T00:36:38.988Z,10.32
2023-01-08T00:39:05.611Z,10.23
2023-01-08T00:41:32.279Z,10.30
2023-01-08T00:43:58.897Z,10.28
2023-01-08T00:46:25.536Z,10.20
2023-01-08T00:48:52.230Z,10.39
2023-01-08T00:51:18.993Z,10.37
2023-01-08T00:53:45.642Z,10.29
2023-01-08T00:56:12.345Z,10.34
2023-01-08T00:58:39.092Z,10.24
2023-01-08T01:01:13.193Z,10.23
2023-01-08T01:03:40.063Z,10.41
2023-01-08T01:06:07.665Z,10.36
2023-01-08T01:08:35.192Z,10.35
2023-01-08T01:11:09.819Z,10.46
2023-01-08T01:13:36.562Z,10.35
2023-01-08T01:16:03.981Z,10.43
2023-01-08T01:18:31.658Z,10.39
2023-01-08T01:20:58.322Z,10.32
2023-01-08T01:23:25.224Z,10.60
2023-01-08T01:25:51.986Z,10.42
2023-01-08T01:28:18.657Z,10.44
2023-01-08T01:30:45.372Z,10.22
2023-01-08T01:33:11.980Z,10.38
2023-01-08T01:35:38.580Z,10.42
2023-01-08T01:38:05.257Z,10.31
2023-01-08T01:40:31.986Z,10.51
2023-01-08T01:42:59.509Z,10.43
2023-01-08T01:45:31.220Z,10.37
2023-01-08T01:48:06.245Z,10.31
2023-01-08T01:50:40.040Z,10.30
2023-01-08T01:53:18.079Z,10.47
2023-01-08T01:55:46.265Z,10.36
2023-01-08T01:58:20.662Z,10.31
2023-01-08T02:00:47.673Z,10.32
2023-01-08T02:03:16.411Z,10.19
2023-01-08T02:05:59.864Z,10.21
2023-01-08T02:08:48.347Z,10.27
2023-01-08T02:11:25.458Z,10.32
2023-01-08T02:14:13.198Z,10.40
2023-01-08T02:16:48.019Z,10.38
2023-01-08T02:19:36.600Z,10.23
2023-01-08T02:22:38.406Z,10.24
2023-01-08T02:25:41.461Z,10.29
2023-01-08T02:28:14.611Z,10.24
2023-01-08T02:30:42.053Z,10.24
2023-01-08T02:33:08.650Z,10.25
2023-01-08T02:36:09.986Z,10.19
2023-01-08T02:38:42.599Z,10.28
2023-01-08T02:41:12.515Z,9.94
2023-01-08T02:43:47.356Z,10.10
2023-01-08T02:46:19.598Z,10.25
2023-01-08T02:48:50.405Z,10.31
2023-01-08T02:51:35.138Z,10.17
2023-01-08T02:54:09.361Z,10.22
2023-01-08T02:56:41.393Z,10.22
2023-01-08T02:59:12.403Z,10.17
2023-01-08T03:01:40.933Z,10.23
2023-01-08T03:04:16.075Z,10.19
2023-01-08T03:06:43.566Z,10.24
2023-01-08T03:09:11.030Z,10.22
2023-01-08T03:11:50.227Z,10.22
2023-01-08T03:14:25.033Z,10.25
2023-01-08T03:17:08.430Z,10.26
2023-01-08T03:19:42.728Z,10.36
2023-01-08T03:22:13.325Z,10.31
2023-01-08T03:24:42.638Z,10.26
2023-01-08T03:27:16.367Z,10.38
2023-01-08T03:29:45.171Z,10.25
2023-01-08T03:32:15.975Z,10.20
2023-01-08T03:34:45.702Z,10.38
2023-01-08T03:37:15.325Z,10.28
2023-01-08T03:39:51.535Z,10.20
2023-01-08T03:42:20.555Z,10.08
2023-01-08T03:44:47.346Z,9.74
2023-01-08T03:47:15.674Z,9.81
2023-01-08T03:49:44.540Z,9.85
2023-01-08T03:52:30.566Z,9.98
2023-01-08T03:54:57.832Z,10.04
2023-01-08T03:57:25.073Z,10.06
2023-01-08T03:59:51.730Z,10.24
2023-01-08T04:02:18.907Z,10.30
2023-01-08T04:04:45.645Z,10.11
2023-01-08T04:07:12.566Z,9.92
2023-01-08T04:09:39.233Z,9.97
2023-01-08T04:12:06.133Z,9.94
2023-01-08T04:14:33.034Z,9.86
2023-01-08T04:16:59.626Z,9.93
2023-01-08T04:19:26.254Z,10.05
2023-01-08T04:21:53.415Z,10.24
2023-01-08T04:24:20.045Z,10.23
2023-01-08T04:26:46.802Z,9.94
2023-01-08T04:29:14.308Z,9.96
2023-01-08T04:31:41.086Z,10.07
2023-01-08T04:34:08.031Z,10.02
2023-01-08T04:36:34.665Z,9.80
2023-01-08T04:39:01.313Z,9.83
2023-01-08T04:41:27.961Z,9.88
2023-01-08T04:43:55.634Z,9.78
2023-01-08T04:46:22.292Z,9.79
2023-01-08T04:48:49.160Z,9.87
2023-01-08T04:51:15.809Z,10.01
2023-01-08T04:53:42.470Z,9.61
2023-01-08T04:56:11.062Z,9.63
2023-01-08T04:58:38.818Z,9.80
2023-01-08T05:01:25.281Z,9.77
2023-01-08T05:04:01.109Z,9.69
2023-01-08T05:06:30.042Z,9.75
2023-01-08T05:08:57.382Z,9.90
2023-01-08T05:11:25.486Z,9.83
2023-01-08T05:13:53.403Z,9.70
2023-01-08T05:16:20.442Z,9.64
2023-01-08T05:18:47.632Z,9.74
2023-01-08T05:21:14.659Z,9.64
2023-01-08T05:23:46.554Z,9.69
2023-01-08T05:26:13.679Z,9.85
2023-01-08T05:28:40.525Z,9.74
2023-01-08T05:31:07.328Z,9.33
2023-01-08T05:33:34.011Z,9.45
2023-01-08T05:36:00.861Z,9.41
2023-01-08T05:38:27.630Z,9.40
2023-01-08T05:40:54.295Z,9.46
2023-01-08T05:43:20.905Z,9.58
2023-01-08T05:45:47.953Z,9.53
2023-01-08T05:48:14.623Z,9.52
2023-01-08T05:50:41.257Z,9.55
2023-01-08T05:53:09.210Z,9.50
2023-01-08T05:55:36.646Z,9.50
2023-01-08T05:58:05.708Z,9.58
2023-01-08T06:00:34.067Z,9.14
2023-01-08T06:03:00.835Z,9.43
2023-01-08T06:05:27.760Z,9.49
2023-01-08T06:07:54.487Z,9.43
2023-01-08T06:10:21.083Z,9.46
2023-01-08T06:12:47.660Z,9.42
2023-01-08T06:15:14.295Z,9.49
2023-01-08T06:17:41.953Z,9.49
2023-01-08T06:20:09.501Z,9.55
2023-01-08T06:22:36.608Z,9.59
2023-01-08T06:25:04.245Z,9.49
2023-01-08T06:27:30.964Z,9.42
2023-01-08T06:29:57.617Z,9.50
2023-01-08T06:32:24.281Z,9.39
2023-01-08T06:34:50.879Z,9.44
2023-01-08T06:37:17.523Z,9.39
2023-01-08T06:39:44.139Z,9.38
2023-01-08T06:42:10.762Z,9.39
2023-01-08T06:44:37.392Z,9.33
2023-01-08T06:47:04.011Z,9.44
2023-01-08T06:49:30.658Z,9.33
2023-01-08T06:51:57.425Z,9.28
2023-01-08T06:54:24.068Z,9.27
2023-01-08T06:56:53.914Z,9.07
2023-01-08T06:59:21.608Z,9.32
2023-01-08T07:01:48.949Z,9.36
2023-01-08T07:04:15.853Z,9.46
2023-01-08T07:06:42.451Z,9.37
2023-01-08T07:09:13.155Z,9.28
2023-01-08T07:11:41.142Z,9.42
2023-01-08T07:14:08.186Z,9.47
2023-01-08T07:16:35.714Z,9.48
2023-01-08T07:19:02.319Z,9.50
2023-01-08T07:21:28.951Z,9.43
2023-01-08T07:23:55.577Z,9.33
2023-01-08T07:26:22.311Z,9.39
2023-01-08T07:28:49.013Z,9.37
2023-01-08T07:31:15.697Z,9.41
2023-01-08T07:33:42.341Z,9.45
2023-01-08T07:36:09.388Z,9.45
2023-01-08T07:38:38.313Z,9.36
2023-01-08T07:41:05.122Z,9.42
2023-01-08T07:43:31.921Z,9.38
2023-01-08T07:45:58.764Z,9.48
2023-01-08T07:48:25.327Z,9.43
2023-01-08T07:50:52.144Z,9.35
2023-01-08T07:53:19.110Z,9.28
2023-01-08T07:55:45.700Z,9.39
2023-01-08T07:58:14.482Z,9.26
2023-01-08T08:00:41.875Z,9.31
2023-01-08T08:03:11.621Z,9.34
2023-01-08T08:05:38.594Z,9.42
2023-01-08T08:08:12.714Z,9.40
2023-01-08T08:10:41.123Z,9.47
2023-01-08T08:13:12.028Z,9.42
2023-01-08T08:15:39.958Z,9.46
2023-01-08T08:18:06.956Z,9.38
2023-01-08T08:20:33.721Z,9.51
2023-01-08T08:23:08.672Z,9.52
2023-01-08T08:25:36.709Z,9.29
2023-01-08T08:28:04.551Z,9.33
2023-01-08T08:30:33.247Z,9.31
2023-01-08T08:33:01.621Z,9.34
2023-01-08T08:35:29.685Z,9.34
2023-01-08T08:37:57.133Z,9.31
2023-01-08T08:40:24.916Z,9.51
2023-01-08T08:43:03.011Z,9.57
2023-01-08T08:45:29.888Z,9.62
2023-01-08T08:47:56.647Z,9.57
2023-01-08T08:50:23.925Z,9.59
2023-01-08T08:52:50.620Z,9.59
2023-01-08T08:55:17.814Z,9.64
2023-01-08T08:57:46.392Z,9.61
2023-01-08T09:00:14.332Z,9.73
2023-01-08T09:02:44.070Z,9.58
2023-01-08T09:05:11.563Z,9.37
2023-01-08T09:07:38.288Z,9.41
2023-01-08T09:10:05.959Z,9.54
2023-01-08T09:12:32.603Z,9.59
2023-01-08T09:14:59.306Z,9.69
2023-01-08T09:17:26.110Z,9.82
2023-01-08T09:19:53.093Z,9.86
2023-01-08T09:22:20.405Z,9.60
2023-01-08T09:24:47.338Z,9.65
2023-01-08T09:27:14.533Z,9.68
2023-01-08T09:29:41.176Z,9.77
2023-01-08T09:32:08.621Z,9.73
2023-01-08T09:34:38.374Z,9.54
2023-01-08T09:37:06.041Z,9.72
2023-01-08T09:39:42.352Z,9.79
2023-01-08T09:42:12.989Z,9.76
2023-01-08T09:44:45.520Z,9.78
2023-01-08T09:47:26.647Z,9.75
2023-01-08T09:49:58.524Z,9.86
2023-01-08T09:52:25.653Z,9.83
2023-01-08T09:54:52.599Z,9.81
2023-01-08T09:57:21.449Z,9.74
2023-01-08T09:59:49.648Z,9.79
2023-01-08T10:02:19.179Z,9.82
2023-01-08T10:04:48.676Z,9.79
2023-01-08T10:07:21.476Z,9.74
2023-01-08T10:09:52.316Z,9.97
2023-01-08T10:12:28.502Z,9.81
2023-01-08T10:14:58.299Z,9.65
2023-01-08T10:17:36.689Z,9.59
2023-01-08T10:20:16.156Z,9.73
2023-01-08T10:22:44.016Z,9.66
2023-01-08T10:25:17.935Z,9.68
2023-01-08T10:27:53.984Z,9.75
2023-01-08T10:30:23.699Z,9.76
2023-01-08T10:32:55.997Z,9.73
2023-01-08T10:35:31.410Z,9.78
2023-01-08T10:37:58.869Z,9.81
2023-01-08T10:40:37.846Z,9.87
2023-01-08T10:43:25.918Z,9.93
2023-01-08T10:46:07.936Z,9.97
2023-01-08T10:48:44.774Z,10.10
2023-01-08T10:51:25.716Z,10.18
2023-01-08T10:53:53.860Z,10.15
2023-01-08T10:56:28.553Z,10.22
2023-01-08T10:58:56.245Z,10.03
2023-01-08T11:01:23.143Z,10.23
2023-01-08T11:03:52.959Z,10.23
2023-01-08T11:06:23.503Z,10.35
2023-01-08T11:08:52.839Z,10.63
2023-01-08T11:11:20.080Z,10.59
2023-01-08T11:13:59.956Z,10.79
2023-01-08T11:16:36.642Z,10.69
2023-01-08T11:19:04.619Z,10.67
2023-01-08T11:21:34.056Z,10.68
2023-01-08T11:24:09.757Z,10.78
2023-01-08T11:26:38.731Z,10.90
2023-01-08T11:29:38.925Z,10.76
2023-01-08T11:32:15.949Z,10.97
2023-01-08T11:35:03.402Z,11.17
2023-01-08T11:37:35.761Z,11.29
2023-01-08T11:40:03.284Z,11.21
2023-01-08T11:42:30.052Z,11.21
2023-01-08T11:45:20.744Z,11.32
2023-01-08T11:48:11.281Z,11.33
2023-01-08T11:51:04.578Z,11.37
2023-01-08T11:53:45.564Z,11.37
2023-01-08T11:56:21.457Z,11.16
2023-01-08T11:59:08.533Z,11.20
2023-01-08T12:01:41.322Z,11.24
2023-01-08T12:04:45.969Z,11.08
2023-01-08T12:07:25.605Z,11.01
2023-01-08T12:10:05.112Z,11.04
2023-01-08T12:12:50.886Z,11.25
2023-01-08T12:15:44.427Z,11.24
2023-01-08T12:18:18.520Z,11.12
2023-01-08T12:21:10.188Z,10.94
2023-01-08T12:23:46.414Z,11.09
2023-01-08T12:26:22.274Z,11.08
2023-01-08T12:29:30.931Z,11.04
2023-01-08T12:32:21.489Z,11.11
2023-01-08T12:35:05.956Z,10.91
2023-01-08T12:37:44.331Z,10.84
2023-01-08T12:40:16.672Z,10.84
2023-01-08T12:42:50.179Z,10.90
2023-01-08T12:45:28.555Z,10.95
2023-01-08T12:48:01.580Z,10.94
2023-01-08T12:50:37.483Z,10.85
2023-01-08T12:53:11.727Z,10.88
2023-01-08T12:55:44.492Z,10.95
2023-01-08T12:58:33.002Z,10.85
2023-01-08T13:01:06.164Z,10.94
2023-01-08T13:03:33.614Z,11.07
2023-01-08T13:06:13.460Z,10.98
2023-01-08T13:08:44.515Z,10.92
2023-01-08T13:11:11.272Z,10.94
2023-01-08T13:13:41.848Z,10.82
2023-01-08T13:16:11.514Z,10.82
2023-01-08T13:18:38.728Z,10.84
2023-01-08T13:21:07.308Z,10.81
2023-01-08T13:23:35.276Z,10.74
2023-01-08T13:26:06.547Z,10.74
2023-01-08T13:28:44.573Z,10.73
2023-01-08T13:31:20.085Z,10.70
2023-01-08T13:33:49.003Z,10.79
2023-01-08T13:36:22.776Z,10.81
2023-01-08T13:39:11.361Z,10.87
2023-01-08T13:41:42.739Z,11.01
2023-01-08T13:44:29.480Z,11.02
2023-01-08T13:46:59.016Z,10.94
2023-01-08T13:49:35.625Z,11.12
2023-01-08T13:52:02.597Z,11.08
2023-01-08T13:54:37.048Z,10.92
2023-01-08T13:57:24.214Z,10.99
2023-01-08T13:59:57.263Z,11.14
2023-01-08T14:02:32.978Z,11.08
2023-01-08T14:05:01.660Z,10.99
2023-01-08T14:07:30.783Z,11.03
2023-01-08T14:10:08.604Z,11.12
2023-01-08T14:12:35.835Z,10.86
2023-01-08T14:15:04.407Z,10.87
2023-01-08T14:17:32.516Z,11.02
2023-01-08T14:19:59.570Z,11.06
2023-01-08T14:22:31.403Z,11.08
2023-01-08T14:25:02.381Z,11.00
2023-01-08T14:27:32.136Z,10.94
2023-01-08T14:29:59.181Z,10.98
2023-01-08T14:32:31.236Z,11.04
2023-01-08T14:35:00.906Z,11.05
2023-01-08T14:37:27.710Z,11.03
2023-01-08T14:39:55.115Z,11.05
2023-01-08T14:42:50.007Z,11.11
2023-01-08T14:45:24.108Z,10.98
2023-01-08T14:47:54.067Z,11.03
2023-01-08T14:50:32.508Z,10.93
2023-01-08T14:53:05.364Z,10.98
2023-01-08T14:55:35.554Z,10.88
2023-01-08T14:58:02.442Z,11.00
2023-01-08T15:00:31.533Z,11.00
2023-01-08T15:02:58.482Z,10.81
2023-01-08T15:05:30.618Z,10.63
2023-01-08T15:07:59.841Z,10.83
2023-01-08T15:10:34.411Z,10.83
2023-01-08T15:13:03.656Z,10.90
2023-01-08T15:15:31.839Z,10.87
2023-01-08T15:17:59.147Z,10.80
2023-01-08T15:20:31.384Z,10.85
2023-01-08T15:22:59.269Z,10.77
2023-01-08T15:25:29.655Z,10.75
2023-01-08T15:28:01.519Z,10.76
2023-01-08T15:30:38.147Z,10.74
2023-01-08T15:33:24.831Z,10.79
2023-01-08T15:35:51.680Z,10.53
2023-01-08T15:38:21.131Z,10.62
2023-01-08T15:40:48.434Z,10.76
2023-01-08T15:43:17.320Z,10.65
2023-01-08T15:45:48.947Z,10.61
2023-01-08T15:48:15.909Z,10.51
2023-01-08T15:50:44.544Z,10.69
2023-01-08T15:53:24.779Z,10.50
2023-01-08T15:55:52.358Z,10.36
2023-01-08T15:58:19.115Z,10.36
2023-01-08T16:00:46.536Z,10.45
2023-01-08T16:03:14.244Z,10.50
2023-01-08T16:05:40.972Z,10.48
2023-01-08T16:08:07.666Z,10.59
2023-01-08T16:10:34.491Z,10.76
2023-01-08T16:13:01.631Z,10.61
2023-01-08T16:15:30.633Z,10.63
2023-01-08T16:17:58.394Z,10.68
2023-01-08T16:20:25.508Z,10.53
2023-01-08T16:22:52.296Z,10.62
2023-01-08T16:25:19.033Z,10.76
2023-01-08T16:27:45.878Z,10.85
2023-01-08T16:30:17.041Z,10.82
2023-01-08T16:32:44.060Z,10.80
2023-01-08T16:35:11.316Z,10.70
2023-01-08T16:37:39.054Z,10.88
2023-01-08T16:40:06.809Z,10.87
2023-01-08T16:42:33.992Z,10.73
2023-01-08T16:45:01.308Z,10.72
2023-01-08T16:47:28.600Z,10.61
2023-01-08T16:49:55.298Z,10.70
2023-01-08T16:52:22.269Z,10.67
2023-01-08T16:54:48.985Z,10.73
2023-01-08T16:57:15.626Z,10.82
2023-01-08T16:59:45.849Z,10.75
2023-01-08T17:02:13.110Z,10.83
2023-01-08T17:04:40.442Z,10.85
2023-01-08T17:07:07.230Z,10.97
2023-01-08T17:09:34.027Z,10.85
2023-01-08T17:12:00.834Z,10.79
2023-01-08T17:14:27.682Z,10.82
2023-01-08T17:16:54.565Z,10.72
2023-01-08T17:19:21.773Z,10.76
2023-01-08T17:21:50.324Z,10.77
2023-01-08T17:24:17.107Z,10.72
2023-01-08T17:26:43.997Z,10.76
2023-01-08T17:29:10.862Z,10.76
2023-01-08T17:31:40.638Z,10.85
2023-01-08T17:34:11.598Z,10.59
2023-01-08T17:36:38.421Z,10.66
2023-01-08T17:39:05.396Z,10.58
2023-01-08T17:41:54.465Z,10.61
2023-01-08T17:44:21.891Z,10.59
2023-01-08T17:46:56.805Z,10.51
2023-01-08T17:49:25.783Z,10.62
2023-01-08T17:51:53.374Z,10.49
2023-01-08T17:54:22.988Z,10.53
2023-01-08T17:56:58.457Z,10.54
2023-01-08T17:59:27.073Z,10.65
2023-01-08T18:01:54.256Z,10.52
2023-01-08T18:04:21.286Z,10.48
2023-01-08T18:06:48.121Z,10.48
2023-01-08T18:09:14.968Z,10.49
2023-01-08T18:11:42.909Z,10.43
2023-01-08T18:14:11.721Z,10.27
2023-01-08T18:16:38.922Z,10.36
2023-01-08T18:19:05.583Z,10.40
2023-01-08T18:21:32.405Z,10.35
2023-01-08T18:24:03.088Z,10.21
2023-01-08T18:26:29.659Z,10.41
2023-01-08T18:28:56.869Z,10.30
2023-01-08T18:31:24.081Z,10.30
2023-01-08T18:33:52.913Z,10.29
2023-01-08T18:36:20.617Z,10.28
2023-01-08T18:38:48.387Z,10.41
2023-01-08T18:41:38.272Z,10.43
2023-01-08T18:44:07.381Z,10.45
2023-01-08T18:46:35.164Z,10.51
2023-01-08T18:49:02.102Z,10.68
2023-01-08T18:51:29.123Z,10.79
2023-01-08T18:53:55.938Z,10.70
2023-01-08T18:56:31.920Z,10.88
2023-01-08T18:58:59.475Z,10.62
2023-01-08T19:01:26.585Z,10.73
2023-01-08T19:03:57.022Z,10.69
2023-01-08T19:06:25.414Z,10.79
2023-01-08T19:08:52.578Z,10.62
2023-01-08T19:11:19.851Z,10.67
2023-01-08T19:13:46.747Z,10.64
2023-01-08T19:16:14.100Z,10.64
2023-01-08T19:18:40.980Z,10.54
2023-01-08T19:21:09.645Z,10.37
2023-01-08T19:23:37.016Z,10.77
2023-01-08T19:26:08.128Z,10.68
2023-01-08T19:28:36.103Z,10.54
2023-01-08T19:31:03.397Z,10.59
2023-01-08T19:33:30.091Z,10.67
2023-01-08T19:36:08.737Z,10.58
2023-01-08T19:38:35.554Z,10.78
2023-01-08T19:41:03.848Z,10.66
2023-01-08T19:43:42.845Z,10.70
2023-01-08T19:46:15.636Z,10.68
2023-01-08T19:48:44.026Z,10.50
2023-01-08T19:51:14.166Z,10.46
2023-01-08T19:53:41.160Z,10.20
2023-01-08T19:56:11.295Z,10.44
2023-01-08T19:58:39.099Z,10.53
2023-01-08T20:01:13.338Z,10.50
2023-01-08T20:03:43.574Z,10.66
2023-01-08T20:06:15.781Z,10.62
2023-01-08T20:08:43.453Z,10.66
2023-01-08T20:11:12.714Z,10.67
2023-01-08T20:13:40.678Z,10.72
2023-01-08T20:16:11.370Z,10.67
2023-01-08T20:18:39.198Z,10.75
2023-01-08T20:21:13.318Z,10.68
2023-01-08T20:23:40.699Z,10.60
2023-01-08T20:26:10.367Z,10.88
2023-01-08T20:28:39.574Z,10.85
2023-01-08T20:31:15.448Z,10.77
2023-01-08T20:33:42.742Z,10.70
2023-01-08T20:36:12.191Z,10.76
2023-01-08T20:38:39.618Z,10.82
2023-01-08T20:43:36.622Z,10.66
2023-01-08T20:46:04.613Z,10.72
2023-01-08T20:48:36.996Z,10.69
2023-01-08T20:51:12.781Z,10.83
2023-01-08T20:53:40.529Z,10.82
2023-01-08T20:56:12.049Z,10.81
2023-01-08T20:58:42.321Z,10.68
2023-01-08T21:01:15.519Z,10.66
2023-01-08T21:03:43.679Z,10.75
2023-01-08T21:06:16.217Z,10.78
2023-01-08T21:08:44.668Z,10.74
2023-01-08T21:11:12.407Z,10.52
2023-01-08T21:13:39.480Z,10.58
2023-01-08T21:16:13.349Z,10.89
2023-01-08T21:18:46.979Z,10.73
2023-01-08T21:21:16.707Z,10.63
2023-01-08T21:23:44.986Z,10.69
2023-01-08T21:26:12.627Z,10.69
2023-01-08T21:28:43.607Z,10.49
2023-01-08T21:31:14.143Z,10.44
2023-01-08T21:33:41.456Z,10.38
2023-01-08T21:36:10.908Z,10.45
2023-01-08T21:38:37.792Z,10.45
2023-01-08T21:41:09.920Z,10.51
2023-01-08T21:43:55.923Z,10.48
2023-01-08T21:46:27.405Z,10.18
2023-01-08T21:48:54.065Z,10.32
2023-01-08T21:51:39.435Z,10.38
2023-01-08T21:54:06.223Z,10.41
2023-01-08T21:56:33.211Z,10.47
2023-01-08T21:58:59.850Z,10.44
2023-01-08T22:01:26.646Z,10.46
2023-01-08T22:03:53.298Z,10.37
2023-01-08T22:06:20.091Z,10.45
2023-01-08T22:08:53.860Z,10.45
2023-01-08T22:11:21.296Z,10.41
2023-01-08T22:13:48.465Z,10.44
2023-01-08T22:16:15.269Z,10.35
2023-01-08T22:18:42.085Z,10.40
2023-01-08T22:21:11.343Z,10.36
2023-01-08T22:23:39.049Z,10.48
2023-01-08T22:26:11.789Z,10.28
2023-01-08T22:28:39.323Z,10.20
2023-01-08T22:31:11.528Z,10.47
2023-01-08T22:33:39.564Z,10.36
2023-01-08T22:36:08.975Z,10.27
2023-01-08T22:38:35.637Z,10.10
2023-01-08T22:41:02.892Z,10.21
2023-01-08T22:43:29.748Z,10.14
2023-01-08T22:45:58.280Z,10.23
2023-01-08T22:48:26.133Z,10.23
2023-01-08T22:50:53.451Z,10.21
2023-01-08T22:53:20.385Z,10.24
2023-01-08T22:55:47.986Z,10.28
2023-01-08T22:58:16.326Z,10.36
2023-01-08T23:00:44.433Z,10.02
2023-01-08T23:03:13.110Z,10.01
2023-01-08T23:05:40.432Z,10.06
2023-01-08T23:08:08.522Z,10.07
2023-01-08T23:10:35.513Z,9.79
2023-01-08T23:13:02.143Z,10.07
2023-01-08T23:15:28.845Z,10.03
2023-01-08T23:17:55.562Z,9.80
2023-01-08T23:20:23.968Z,9.99
2023-01-08T23:22:51.067Z,9.95
2023-01-08T23:25:17.898Z,10.02
2023-01-08T23:27:44.911Z,9.80
2023-01-08T23:30:12.989Z,9.78
2023-01-08T23:32:40.273Z,9.76
2023-01-08T23:35:07.305Z,9.77
2023-01-08T23:37:34.651Z,9.77
2023-01-08T23:40:01.483Z,9.80
2023-01-08T23:42:29.826Z,9.87
2023-01-08T23:44:56.591Z,9.95
2023-01-08T23:47:23.233Z,9.92
2023-01-08T23:49:49.998Z,9.92
2023-01-08T23:52:16.573Z,9.86
2023-01-08T23:54:43.335Z,10.03
2023-01-08T23:57:10.112Z,9.81
2023-01-08T23:59:37.095Z,9.68
